Air Resources Laboratory banner image
Air Resources Laboratory web site National Oceanic and Atmospheric Administration (NOAA)

la metar


KAEX 232053Z 21004KT 10SM CLR 34/23 A2983 RMK AO2 SLP104 T03390233 56028 $=
KARA 232053Z 18013KT 10SM FEW037 32/22 A2992 RMK AO2 SLP129 60000 T03220222
 58018 $=
KASD 232053Z AUTO 20008KT 170V250 10SM CLR 34/19 A2991 RMK AO2 SLP127 T03390194
 58021 TSNO=
KBAD 232056Z AUTO 18012KT 10SM CLR 35/21 A2981 RMK AO2 SLP095 T03510206 57023=
KBTR 232053Z 19010KT 10SM BKN042 OVC055 32/23 A2989 RMK AO2 SLP119 T03220233
 58020=
KBVE 232051Z AUTO 23010KT 10SM FEW025 32/25 A2996 RMK AO2 SLP145 T03170250
 56013=
KCWF 232055Z 17012KT 10SM SCT032 32/25 A2989=
KDRI 232055Z AUTO 18011KT 10SM SCT039 SCT055 SCT075 34/23 A2988 RMK AO2
 T03400228=
KDTN 232053Z 19012KT 10SM CLR 35/21 A2982 RMK AO2 SLP094 T03500211 56023 $=
KESF 232053Z AUTO 19007KT 10SM FEW055 35/22 A2985 RMK AO2 SLP107 T03500222
 56028=
KHUM 232047Z 20006KT 7SM SCT037 BKN060 32/24 A2994=
KIER 232055Z AUTO 19008KT 10SM CLR 35/21 A2984 RMK AO2 T03460213=
KLCH 232053Z 19009G19KT 10SM SCT029 32/24 A2989 RMK AO2 SLP130 T03170244 56016=
KLFT 232053Z 16010KT 10SM SCT037 SCT046 BKN060 32/24 A2990 RMK AO2 SLP124
 T03170244 56018=
KMLU 232053Z 20012KT 10SM CLR 34/23 A2983 RMK AO2 SLP100 T03390228 56028=
KMSY 232053Z 18008KT 10SM SCT045 SCT250 34/24 A2992 RMK AO2 SLP134 T03390239
 58017=
KNBG 232055Z 20009KT 10SM FEW040 FEW050 SCT250 32/26 A2993 RMK AO2 SLP133
 T03220261 58014 PNO $=
KNEW 232053Z 36003KT 10SM BKN044 OVC055 33/23 A2993 RMK AO2 SLP127 T03280233
 58014=
KPOE 232058Z AUTO 26010KT 10SM SCT041 SCT060 33/23 A2985 RMK AO2 SLP106
 T03270226 57025=
KPTN 232056Z AUTO 18008KT 10SM CLR 32/26 A2993 RMK AO2 SLP136 6//// T03170256
 58016 PNO $=
KSHV 232056Z 19009KT 10SM FEW050 FEW190 35/20 A2982 RMK AO2 SLP092 T03500200
 56024=
KTVR 232053Z AUTO 19007KT 10SM CLR 33/25 A2985 RMK AO2 SLP113 T03280250 56027=